sensor_id;sensor_type;location;lat;lon;timestamp;P1;durP1;ratioP1;P2;durP2;ratioP2
4365;SDS011;2196;47.422;9.656;2022-09-12T00:01:15;1.70;;;1.07;;
4365;SDS011;2196;47.422;9.656;2022-09-12T00:03:45;1.90;;;1.53;;
4365;SDS011;2196;47.422;9.656;2022-09-12T00:06:14;1.70;;;1.07;;
4365;SDS011;2196;47.422;9.656;2022-09-12T00:08:43;0.70;;;0.70;;
4365;SDS011;2196;47.422;9.656;2022-09-12T00:11:10;0.70;;;0.70;;
4365;SDS011;2196;47.422;9.656;2022-09-12T00:13:38;1.03;;;1.00;;
4365;SDS011;2196;47.422;9.656;2022-09-12T00:16:11;1.43;;;1.33;;
4365;SDS011;2196;47.422;9.656;2022-09-12T00:18:41;2.00;;;0.80;;
4365;SDS011;2196;47.422;9.656;2022-09-12T00:21:10;1.63;;;0.63;;
4365;SDS011;2196;47.422;9.656;2022-09-12T00:23:37;1.33;;;0.80;;
4365;SDS011;2196;47.422;9.656;2022-09-12T00:26:05;0.80;;;0.60;;
4365;SDS011;2196;47.422;9.656;2022-09-12T00:28:32;1.60;;;0.50;;
4365;SDS011;2196;47.422;9.656;2022-09-12T00:31:02;2.03;;;0.60;;
4365;SDS011;2196;47.422;9.656;2022-09-12T00:33:30;0.50;;;0.50;;
4365;SDS011;2196;47.422;9.656;2022-09-12T00:35:57;0.67;;;0.67;;
4365;SDS011;2196;47.422;9.656;2022-09-12T00:38:26;0.60;;;0.60;;
4365;SDS011;2196;47.422;9.656;2022-09-12T00:40:53;0.50;;;0.50;;
4365;SDS011;2196;47.422;9.656;2022-09-12T00:43:33;0.50;;;0.50;;
4365;SDS011;2196;47.422;9.656;2022-09-12T00:46:03;2.00;;;0.60;;
4365;SDS011;2196;47.422;9.656;2022-09-12T00:48:38;1.63;;;0.63;;
4365;SDS011;2196;47.422;9.656;2022-09-12T00:51:09;0.57;;;0.57;;
4365;SDS011;2196;47.422;9.656;2022-09-12T00:53:38;1.53;;;0.73;;
4365;SDS011;2196;47.422;9.656;2022-09-12T00:56:09;1.03;;;0.70;;
4365;SDS011;2196;47.422;9.656;2022-09-12T00:58:41;0.90;;;0.73;;
4365;SDS011;2196;47.422;9.656;2022-09-12T01:01:13;0.70;;;0.60;;
4365;SDS011;2196;47.422;9.656;2022-09-12T01:03:40;0.40;;;0.40;;
4365;SDS011;2196;47.422;9.656;2022-09-12T01:06:09;0.70;;;0.50;;
4365;SDS011;2196;47.422;9.656;2022-09-12T01:08:40;1.60;;;0.50;;
4365;SDS011;2196;47.422;9.656;2022-09-12T01:11:10;0.93;;;0.57;;
4365;SDS011;2196;47.422;9.656;2022-09-12T01:13:38;0.80;;;0.80;;
4365;SDS011;2196;47.422;9.656;2022-09-12T01:16:05;0.50;;;0.50;;
4365;SDS011;2196;47.422;9.656;2022-09-12T01:18:38;0.97;;;0.50;;
4365;SDS011;2196;47.422;9.656;2022-09-12T01:21:24;0.50;;;0.50;;
4365;SDS011;2196;47.422;9.656;2022-09-12T01:24:14;0.60;;;0.60;;
4365;SDS011;2196;47.422;9.656;2022-09-12T01:27:10;1.50;;;0.60;;
4365;SDS011;2196;47.422;9.656;2022-09-12T01:30:02;0.80;;;0.80;;
4365;SDS011;2196;47.422;9.656;2022-09-12T01:32:44;0.73;;;0.73;;
4365;SDS011;2196;47.422;9.656;2022-09-12T01:35:22;0.67;;;0.67;;
4365;SDS011;2196;47.422;9.656;2022-09-12T01:37:58;1.57;;;0.90;;
4365;SDS011;2196;47.422;9.656;2022-09-12T01:40:36;1.90;;;0.70;;
4365;SDS011;2196;47.422;9.656;2022-09-12T01:43:12;0.50;;;0.50;;
4365;SDS011;2196;47.422;9.656;2022-09-12T01:45:48;0.70;;;0.70;;
4365;SDS011;2196;47.422;9.656;2022-09-12T01:48:22;0.97;;;0.80;;
4365;SDS011;2196;47.422;9.656;2022-09-12T01:50:56;1.37;;;1.27;;
4365;SDS011;2196;47.422;9.656;2022-09-12T01:53:32;0.87;;;0.87;;
4365;SDS011;2196;47.422;9.656;2022-09-12T01:56:05;1.70;;;0.77;;
4365;SDS011;2196;47.422;9.656;2022-09-12T01:58:37;1.20;;;1.03;;
4365;SDS011;2196;47.422;9.656;2022-09-12T02:01:11;1.13;;;0.80;;
4365;SDS011;2196;47.422;9.656;2022-09-12T02:03:42;0.83;;;0.83;;
4365;SDS011;2196;47.422;9.656;2022-09-12T02:06:13;0.87;;;0.87;;
4365;SDS011;2196;47.422;9.656;2022-09-12T02:08:45;1.80;;;1.00;;
4365;SDS011;2196;47.422;9.656;2022-09-12T02:11:15;0.50;;;0.50;;
4365;SDS011;2196;47.422;9.656;2022-09-12T02:13:45;0.63;;;0.63;;
4365;SDS011;2196;47.422;9.656;2022-09-12T02:16:18;0.77;;;0.70;;
4365;SDS011;2196;47.422;9.656;2022-09-12T02:18:49;0.40;;;0.40;;
4365;SDS011;2196;47.422;9.656;2022-09-12T02:21:19;0.90;;;0.70;;
4365;SDS011;2196;47.422;9.656;2022-09-12T02:23:50;2.03;;;0.50;;
4365;SDS011;2196;47.422;9.656;2022-09-12T02:26:22;1.03;;;0.93;;
4365;SDS011;2196;47.422;9.656;2022-09-12T02:28:54;1.07;;;0.47;;
4365;SDS011;2196;47.422;9.656;2022-09-12T02:31:24;0.50;;;0.50;;
4365;SDS011;2196;47.422;9.656;2022-09-12T02:33:59;0.40;;;0.40;;
4365;SDS011;2196;47.422;9.656;2022-09-12T02:36:38;0.63;;;0.50;;
4365;SDS011;2196;47.422;9.656;2022-09-12T02:39:14;0.40;;;0.40;;
4365;SDS011;2196;47.422;9.656;2022-09-12T02:41:44;1.80;;;0.50;;
4365;SDS011;2196;47.422;9.656;2022-09-12T02:44:11;0.50;;;0.50;;
4365;SDS011;2196;47.422;9.656;2022-09-12T02:46:41;0.50;;;0.50;;
4365;SDS011;2196;47.422;9.656;2022-09-12T03:02:19;0.83;;;0.50;;
4365;SDS011;2196;47.422;9.656;2022-09-12T03:04:59;0.50;;;0.50;;
4365;SDS011;2196;47.422;9.656;2022-09-12T03:10:30;0.50;;;0.47;;
4365;SDS011;2196;47.422;9.656;2022-09-12T03:13:07;0.77;;;0.50;;
4365;SDS011;2196;47.422;9.656;2022-09-12T03:15:46;0.77;;;0.77;;
4365;SDS011;2196;47.422;9.656;2022-09-12T03:18:28;0.53;;;0.40;;
4365;SDS011;2196;47.422;9.656;2022-09-12T03:21:08;0.67;;;0.67;;
4365;SDS011;2196;47.422;9.656;2022-09-12T03:23:45;0.87;;;0.87;;
4365;SDS011;2196;47.422;9.656;2022-09-12T03:26:20;0.50;;;0.50;;
4365;SDS011;2196;47.422;9.656;2022-09-12T03:28:53;0.80;;;0.80;;
4365;SDS011;2196;47.422;9.656;2022-09-12T03:31:23;3.00;;;0.80;;
4365;SDS011;2196;47.422;9.656;2022-09-12T03:33:52;3.23;;;0.80;;
4365;SDS011;2196;47.422;9.656;2022-09-12T03:36:22;1.63;;;0.60;;
4365;SDS011;2196;47.422;9.656;2022-09-12T03:38:53;1.40;;;0.50;;
4365;SDS011;2196;47.422;9.656;2022-09-12T03:41:20;1.70;;;0.70;;
4365;SDS011;2196;47.422;9.656;2022-09-12T03:43:48;0.67;;;0.60;;
4365;SDS011;2196;47.422;9.656;2022-09-12T03:46:15;1.37;;;0.77;;
4365;SDS011;2196;47.422;9.656;2022-09-12T03:48:42;0.70;;;0.70;;
4365;SDS011;2196;47.422;9.656;2022-09-12T03:51:11;0.87;;;0.83;;
4365;SDS011;2196;47.422;9.656;2022-09-12T03:53:38;1.50;;;1.10;;
4365;SDS011;2196;47.422;9.656;2022-09-12T03:56:05;0.70;;;0.70;;
4365;SDS011;2196;47.422;9.656;2022-09-12T03:58:35;0.67;;;0.67;;
4365;SDS011;2196;47.422;9.656;2022-09-12T04:01:07;1.37;;;0.70;;
4365;SDS011;2196;47.422;9.656;2022-09-12T04:03:37;1.13;;;1.00;;
4365;SDS011;2196;47.422;9.656;2022-09-12T04:06:05;0.97;;;0.97;;
4365;SDS011;2196;47.422;9.656;2022-09-12T04:08:36;0.90;;;0.90;;
4365;SDS011;2196;47.422;9.656;2022-09-12T04:11:04;1.90;;;1.00;;
4365;SDS011;2196;47.422;9.656;2022-09-12T04:13:32;0.90;;;0.90;;
4365;SDS011;2196;47.422;9.656;2022-09-12T04:16:00;1.10;;;1.10;;
4365;SDS011;2196;47.422;9.656;2022-09-12T04:18:28;0.97;;;0.97;;
4365;SDS011;2196;47.422;9.656;2022-09-12T04:20:56;0.97;;;0.97;;
4365;SDS011;2196;47.422;9.656;2022-09-12T04:23:24;1.60;;;1.00;;
4365;SDS011;2196;47.422;9.656;2022-09-12T04:25:55;2.67;;;0.80;;
4365;SDS011;2196;47.422;9.656;2022-09-12T04:28:24;0.83;;;0.83;;
4365;SDS011;2196;47.422;9.656;2022-09-12T04:30:53;3.03;;;1.20;;
4365;SDS011;2196;47.422;9.656;2022-09-12T04:33:20;1.00;;;1.00;;
4365;SDS011;2196;47.422;9.656;2022-09-12T04:35:47;2.00;;;1.10;;
4365;SDS011;2196;47.422;9.656;2022-09-12T04:38:14;1.07;;;1.07;;
4365;SDS011;2196;47.422;9.656;2022-09-12T04:40:41;1.37;;;1.27;;
4365;SDS011;2196;47.422;9.656;2022-09-12T04:43:10;1.20;;;1.10;;
4365;SDS011;2196;47.422;9.656;2022-09-12T04:45:40;1.17;;;1.10;;
4365;SDS011;2196;47.422;9.656;2022-09-12T04:48:07;1.20;;;1.10;;
4365;SDS011;2196;47.422;9.656;2022-09-12T04:50:34;2.03;;;1.30;;
4365;SDS011;2196;47.422;9.656;2022-09-12T04:53:01;0.80;;;0.80;;
4365;SDS011;2196;47.422;9.656;2022-09-12T04:55:28;1.93;;;1.27;;
4365;SDS011;2196;47.422;9.656;2022-09-12T04:57:55;1.73;;;1.57;;
4365;SDS011;2196;47.422;9.656;2022-09-12T05:00:24;2.87;;;0.80;;
4365;SDS011;2196;47.422;9.656;2022-09-12T05:02:50;1.30;;;0.97;;
4365;SDS011;2196;47.422;9.656;2022-09-12T05:05:17;1.00;;;1.00;;
4365;SDS011;2196;47.422;9.656;2022-09-12T05:07:44;3.10;;;0.90;;
4365;SDS011;2196;47.422;9.656;2022-09-12T05:10:11;2.93;;;0.83;;
4365;SDS011;2196;47.422;9.656;2022-09-12T05:12:38;2.83;;;0.90;;
4365;SDS011;2196;47.422;9.656;2022-09-12T05:15:06;0.97;;;0.97;;
4365;SDS011;2196;47.422;9.656;2022-09-12T05:17:35;1.33;;;1.10;;
4365;SDS011;2196;47.422;9.656;2022-09-12T05:20:02;1.00;;;1.00;;
4365;SDS011;2196;47.422;9.656;2022-09-12T05:22:30;4.30;;;1.40;;
4365;SDS011;2196;47.422;9.656;2022-09-12T05:24:57;1.73;;;0.90;;
4365;SDS011;2196;47.422;9.656;2022-09-12T05:27:24;1.17;;;1.07;;
4365;SDS011;2196;47.422;9.656;2022-09-12T05:29:51;1.43;;;1.27;;
4365;SDS011;2196;47.422;9.656;2022-09-12T05:32:18;1.20;;;1.10;;
4365;SDS011;2196;47.422;9.656;2022-09-12T05:34:46;1.20;;;1.07;;
4365;SDS011;2196;47.422;9.656;2022-09-12T05:37:13;1.10;;;1.10;;
4365;SDS011;2196;47.422;9.656;2022-09-12T05:39:41;1.90;;;1.30;;
4365;SDS011;2196;47.422;9.656;2022-09-12T05:42:08;1.00;;;1.00;;
4365;SDS011;2196;47.422;9.656;2022-09-12T05:44:36;1.10;;;0.70;;
4365;SDS011;2196;47.422;9.656;2022-09-12T05:47:03;1.57;;;0.70;;
4365;SDS011;2196;47.422;9.656;2022-09-12T05:49:30;0.93;;;0.93;;
4365;SDS011;2196;47.422;9.656;2022-09-12T05:51:59;2.07;;;0.80;;
4365;SDS011;2196;47.422;9.656;2022-09-12T05:54:27;2.40;;;1.17;;
4365;SDS011;2196;47.422;9.656;2022-09-12T05:56:54;1.57;;;1.10;;
4365;SDS011;2196;47.422;9.656;2022-09-12T05:59:21;1.03;;;0.70;;
4365;SDS011;2196;47.422;9.656;2022-09-12T06:01:49;1.53;;;0.57;;
4365;SDS011;2196;47.422;9.656;2022-09-12T06:04:16;2.87;;;1.07;;
4365;SDS011;2196;47.422;9.656;2022-09-12T06:06:44;2.40;;;0.80;;
4365;SDS011;2196;47.422;9.656;2022-09-12T06:09:14;2.37;;;0.90;;
4365;SDS011;2196;47.422;9.656;2022-09-12T06:11:42;2.43;;;0.77;;
4365;SDS011;2196;47.422;9.656;2022-09-12T06:14:10;0.93;;;0.83;;
4365;SDS011;2196;47.422;9.656;2022-09-12T06:16:38;0.70;;;0.70;;
4365;SDS011;2196;47.422;9.656;2022-09-12T06:19:06;4.43;;;0.90;;
4365;SDS011;2196;47.422;9.656;2022-09-12T06:21:38;3.93;;;0.80;;
4365;SDS011;2196;47.422;9.656;2022-09-12T06:24:05;0.90;;;0.90;;
4365;SDS011;2196;47.422;9.656;2022-09-12T06:26:34;2.47;;;0.80;;
4365;SDS011;2196;47.422;9.656;2022-09-12T06:29:01;1.90;;;0.70;;
4365;SDS011;2196;47.422;9.656;2022-09-12T06:31:30;3.00;;;0.60;;
4365;SDS011;2196;47.422;9.656;2022-09-12T06:33:59;0.80;;;0.67;;
4365;SDS011;2196;47.422;9.656;2022-09-12T06:36:27;2.00;;;0.70;;
4365;SDS011;2196;47.422;9.656;2022-09-12T06:38:56;0.60;;;0.60;;
4365;SDS011;2196;47.422;9.656;2022-09-12T06:41:26;6.73;;;1.00;;
4365;SDS011;2196;47.422;9.656;2022-09-12T06:43:55;0.80;;;0.80;;
4365;SDS011;2196;47.422;9.656;2022-09-12T06:46:22;1.40;;;0.43;;
4365;SDS011;2196;47.422;9.656;2022-09-12T06:48:50;1.13;;;0.33;;
4365;SDS011;2196;47.422;9.656;2022-09-12T06:51:17;0.90;;;0.30;;
4365;SDS011;2196;47.422;9.656;2022-09-12T06:53:45;0.40;;;0.30;;
4365;SDS011;2196;47.422;9.656;2022-09-12T06:56:14;0.70;;;0.40;;
4365;SDS011;2196;47.422;9.656;2022-09-12T06:58:43;0.30;;;0.30;;
4365;SDS011;2196;47.422;9.656;2022-09-12T07:01:13;0.50;;;0.50;;
4365;SDS011;2196;47.422;9.656;2022-09-12T07:03:42;0.73;;;0.73;;
4365;SDS011;2196;47.422;9.656;2022-09-12T07:06:13;0.33;;;0.30;;
4365;SDS011;2196;47.422;9.656;2022-09-12T07:08:41;0.93;;;0.27;;
4365;SDS011;2196;47.422;9.656;2022-09-12T07:11:09;0.40;;;0.40;;
4365;SDS011;2196;47.422;9.656;2022-09-12T07:13:37;1.03;;;0.57;;
4365;SDS011;2196;47.422;9.656;2022-09-12T07:16:05;0.80;;;0.40;;
4365;SDS011;2196;47.422;9.656;2022-09-12T07:18:34;1.53;;;0.30;;
4365;SDS011;2196;47.422;9.656;2022-09-12T07:21:03;0.93;;;0.40;;
4365;SDS011;2196;47.422;9.656;2022-09-12T07:23:31;0.60;;;0.30;;
4365;SDS011;2196;47.422;9.656;2022-09-12T07:25:58;0.27;;;0.20;;
4365;SDS011;2196;47.422;9.656;2022-09-12T07:28:26;0.50;;;0.20;;
4365;SDS011;2196;47.422;9.656;2022-09-12T07:30:54;0.90;;;0.40;;
4365;SDS011;2196;47.422;9.656;2022-09-12T07:33:22;0.30;;;0.30;;
4365;SDS011;2196;47.422;9.656;2022-09-12T07:35:54;1.37;;;0.30;;
4365;SDS011;2196;47.422;9.656;2022-09-12T07:38:25;1.10;;;0.57;;
4365;SDS011;2196;47.422;9.656;2022-09-12T07:40:52;0.43;;;0.37;;
4365;SDS011;2196;47.422;9.656;2022-09-12T07:43:21;1.50;;;0.40;;
4365;SDS011;2196;47.422;9.656;2022-09-12T07:45:53;0.20;;;0.20;;
4365;SDS011;2196;47.422;9.656;2022-09-12T07:48:20;0.93;;;0.30;;
4365;SDS011;2196;47.422;9.656;2022-09-12T07:50:48;0.67;;;0.40;;
4365;SDS011;2196;47.422;9.656;2022-09-12T07:53:30;0.30;;;0.30;;
4365;SDS011;2196;47.422;9.656;2022-09-12T07:55:59;1.20;;;0.20;;
4365;SDS011;2196;47.422;9.656;2022-09-12T07:58:27;0.33;;;0.33;;
4365;SDS011;2196;47.422;9.656;2022-09-12T08:01:00;1.63;;;0.40;;
4365;SDS011;2196;47.422;9.656;2022-09-12T08:03:27;0.30;;;0.30;;
4365;SDS011;2196;47.422;9.656;2022-09-12T08:06:02;0.20;;;0.20;;
4365;SDS011;2196;47.422;9.656;2022-09-12T08:08:29;1.17;;;0.33;;
4365;SDS011;2196;47.422;9.656;2022-09-12T08:10:57;0.33;;;0.33;;
4365;SDS011;2196;47.422;9.656;2022-09-12T08:13:24;0.20;;;0.20;;
4365;SDS011;2196;47.422;9.656;2022-09-12T08:15:55;0.40;;;0.40;;
4365;SDS011;2196;47.422;9.656;2022-09-12T08:18:26;0.63;;;0.20;;
4365;SDS011;2196;47.422;9.656;2022-09-12T08:20:55;0.45;;;0.30;;
4365;SDS011;2196;47.422;9.656;2022-09-12T08:23:24;0.22;;;0.22;;
4365;SDS011;2196;47.422;9.656;2022-09-12T08:25:54;0.20;;;0.20;;
4365;SDS011;2196;47.422;9.656;2022-09-12T08:28:23;0.52;;;0.20;;
4365;SDS011;2196;47.422;9.656;2022-09-12T08:30:51;0.20;;;0.20;;
4365;SDS011;2196;47.422;9.656;2022-09-12T08:33:18;0.60;;;0.60;;
4365;SDS011;2196;47.422;9.656;2022-09-12T08:35:46;1.42;;;0.40;;
4365;SDS011;2196;47.422;9.656;2022-09-12T08:38:13;1.27;;;0.65;;
4365;SDS011;2196;47.422;9.656;2022-09-12T08:40:43;1.75;;;0.50;;
4365;SDS011;2196;47.422;9.656;2022-09-12T08:43:22;1.23;;;0.43;;
4365;SDS011;2196;47.422;9.656;2022-09-12T08:46:00;0.40;;;0.40;;
4365;SDS011;2196;47.422;9.656;2022-09-12T08:48:32;1.60;;;0.50;;
4365;SDS011;2196;47.422;9.656;2022-09-12T08:50:59;0.55;;;0.50;;
4365;SDS011;2196;47.422;9.656;2022-09-12T08:53:29;1.23;;;0.47;;
4365;SDS011;2196;47.422;9.656;2022-09-12T08:56:01;1.35;;;0.30;;
4365;SDS011;2196;47.422;9.656;2022-09-12T08:58:34;0.52;;;0.30;;
4365;SDS011;2196;47.422;9.656;2022-09-12T09:01:06;0.65;;;0.30;;
4365;SDS011;2196;47.422;9.656;2022-09-12T09:03:41;0.40;;;0.40;;
4365;SDS011;2196;47.422;9.656;2022-09-12T09:06:32;0.30;;;0.30;;
4365;SDS011;2196;47.422;9.656;2022-09-12T09:09:09;0.88;;;0.20;;
4365;SDS011;2196;47.422;9.656;2022-09-12T09:11:50;2.20;;;0.40;;
4365;SDS011;2196;47.422;9.656;2022-09-12T09:14:39;0.10;;;0.10;;
4365;SDS011;2196;47.422;9.656;2022-09-12T09:17:21;0.82;;;0.35;;
4365;SDS011;2196;47.422;9.656;2022-09-12T09:19:52;1.20;;;0.30;;
4365;SDS011;2196;47.422;9.656;2022-09-12T09:22:37;0.28;;;0.20;;
4365;SDS011;2196;47.422;9.656;2022-09-12T09:25:10;1.50;;;0.30;;
4365;SDS011;2196;47.422;9.656;2022-09-12T09:27:45;1.17;;;0.30;;
4365;SDS011;2196;47.422;9.656;2022-09-12T09:30:19;0.75;;;0.30;;
4365;SDS011;2196;47.422;9.656;2022-09-12T09:32:48;0.60;;;0.50;;
4365;SDS011;2196;47.422;9.656;2022-09-12T09:35:25;0.65;;;0.30;;
4365;SDS011;2196;47.422;9.656;2022-09-12T09:38:04;1.23;;;0.30;;
4365;SDS011;2196;47.422;9.656;2022-09-12T09:40:43;1.08;;;0.20;;
4365;SDS011;2196;47.422;9.656;2022-09-12T09:43:23;0.47;;;0.47;;
4365;SDS011;2196;47.422;9.656;2022-09-12T09:45:53;0.43;;;0.30;;
4365;SDS011;2196;47.422;9.656;2022-09-12T09:48:22;2.03;;;0.20;;
4365;SDS011;2196;47.422;9.656;2022-09-12T09:53:42;1.05;;;0.30;;
4365;SDS011;2196;47.422;9.656;2022-09-12T09:56:14;1.13;;;0.52;;
4365;SDS011;2196;47.422;9.656;2022-09-12T09:58:53;0.55;;;0.55;;
4365;SDS011;2196;47.422;9.656;2022-09-12T10:01:20;0.30;;;0.30;;
4365;SDS011;2196;47.422;9.656;2022-09-12T10:03:49;0.73;;;0.30;;
4365;SDS011;2196;47.422;9.656;2022-09-12T10:06:22;0.90;;;0.20;;
4365;SDS011;2196;47.422;9.656;2022-09-12T10:08:51;0.68;;;0.30;;
4365;SDS011;2196;47.422;9.656;2022-09-12T10:11:31;2.50;;;0.25;;
4365;SDS011;2196;47.422;9.656;2022-09-12T10:13:59;0.82;;;0.30;;
4365;SDS011;2196;47.422;9.656;2022-09-12T10:16:29;1.50;;;0.22;;
4365;SDS011;2196;47.422;9.656;2022-09-12T10:18:57;0.22;;;0.22;;
4365;SDS011;2196;47.422;9.656;2022-09-12T10:21:29;1.85;;;0.30;;
4365;SDS011;2196;47.422;9.656;2022-09-12T10:24:03;0.70;;;0.43;;
4365;SDS011;2196;47.422;9.656;2022-09-12T10:26:41;0.30;;;0.30;;
4365;SDS011;2196;47.422;9.656;2022-09-12T10:29:14;0.63;;;0.50;;
4365;SDS011;2196;47.422;9.656;2022-09-12T10:31:47;1.00;;;0.40;;
4365;SDS011;2196;47.422;9.656;2022-09-12T10:34:20;1.95;;;0.40;;
4365;SDS011;2196;47.422;9.656;2022-09-12T10:36:52;1.58;;;1.00;;
4365;SDS011;2196;47.422;9.656;2022-09-12T10:39:24;1.98;;;1.10;;
4365;SDS011;2196;47.422;9.656;2022-09-12T10:41:52;1.10;;;1.10;;
4365;SDS011;2196;47.422;9.656;2022-09-12T10:44:24;1.40;;;1.40;;
4365;SDS011;2196;47.422;9.656;2022-09-12T10:46:52;1.27;;;1.27;;
4365;SDS011;2196;47.422;9.656;2022-09-12T10:49:24;2.10;;;1.60;;
4365;SDS011;2196;47.422;9.656;2022-09-12T10:51:53;2.17;;;1.97;;
4365;SDS011;2196;47.422;9.656;2022-09-12T10:54:21;2.13;;;2.03;;
4365;SDS011;2196;47.422;9.656;2022-09-12T10:56:59;1.87;;;1.63;;
4365;SDS011;2196;47.422;9.656;2022-09-12T11:00:01;2.63;;;1.80;;
4365;SDS011;2196;47.422;9.656;2022-09-12T11:02:37;2.27;;;2.17;;
4365;SDS011;2196;47.422;9.656;2022-09-12T11:05:18;1.70;;;1.70;;
4365;SDS011;2196;47.422;9.656;2022-09-12T11:08:01;1.70;;;1.60;;
4365;SDS011;2196;47.422;9.656;2022-09-12T11:10:38;1.20;;;1.20;;
4365;SDS011;2196;47.422;9.656;2022-09-12T11:13:16;1.57;;;1.50;;
4365;SDS011;2196;47.422;9.656;2022-09-12T11:16:03;1.20;;;1.20;;
4365;SDS011;2196;47.422;9.656;2022-09-12T11:18:43;3.23;;;1.90;;
4365;SDS011;2196;47.422;9.656;2022-09-12T11:21:25;1.27;;;1.27;;
4365;SDS011;2196;47.422;9.656;2022-09-12T11:24:11;1.00;;;1.00;;
4365;SDS011;2196;47.422;9.656;2022-09-12T11:26:56;1.57;;;1.47;;
4365;SDS011;2196;47.422;9.656;2022-09-12T11:29:46;1.27;;;0.83;;
4365;SDS011;2196;47.422;9.656;2022-09-12T11:32:24;1.07;;;0.90;;
4365;SDS011;2196;47.422;9.656;2022-09-12T11:35:17;0.70;;;0.70;;
4365;SDS011;2196;47.422;9.656;2022-09-12T11:37:53;0.67;;;0.67;;
4365;SDS011;2196;47.422;9.656;2022-09-12T11:40:32;0.60;;;0.60;;
4365;SDS011;2196;47.422;9.656;2022-09-12T11:43:08;0.80;;;0.80;;
4365;SDS011;2196;47.422;9.656;2022-09-12T11:45:42;1.30;;;0.50;;
4365;SDS011;2196;47.422;9.656;2022-09-12T11:48:13;0.97;;;0.50;;
4365;SDS011;2196;47.422;9.656;2022-09-12T11:50:49;1.53;;;0.40;;
4365;SDS011;2196;47.422;9.656;2022-09-12T11:53:21;0.33;;;0.33;;
4365;SDS011;2196;47.422;9.656;2022-09-12T11:55:52;0.77;;;0.50;;
4365;SDS011;2196;47.422;9.656;2022-09-12T11:58:25;0.47;;;0.40;;
4365;SDS011;2196;47.422;9.656;2022-09-12T12:00:54;1.50;;;0.40;;
4365;SDS011;2196;47.422;9.656;2022-09-12T12:03:27;2.30;;;0.60;;
4365;SDS011;2196;47.422;9.656;2022-09-12T12:06:00;0.80;;;0.70;;
4365;SDS011;2196;47.422;9.656;2022-09-12T12:08:31;1.03;;;0.67;;
4365;SDS011;2196;47.422;9.656;2022-09-12T12:11:03;3.60;;;1.03;;
4365;SDS011;2196;47.422;9.656;2022-09-12T12:13:32;1.87;;;0.50;;
4365;SDS011;2196;47.422;9.656;2022-09-12T12:16:03;1.67;;;0.90;;
4365;SDS011;2196;47.422;9.656;2022-09-12T12:18:35;0.43;;;0.43;;
4365;SDS011;2196;47.422;9.656;2022-09-12T12:21:17;1.80;;;0.90;;
4365;SDS011;2196;47.422;9.656;2022-09-12T12:24:01;1.90;;;0.50;;
4365;SDS011;2196;47.422;9.656;2022-09-12T12:26:42;0.60;;;0.60;;
4365;SDS011;2196;47.422;9.656;2022-09-12T12:29:35;0.40;;;0.40;;
4365;SDS011;2196;47.422;9.656;2022-09-12T12:32:23;1.40;;;0.50;;
4365;SDS011;2196;47.422;9.656;2022-09-12T12:35:00;0.50;;;0.50;;
4365;SDS011;2196;47.422;9.656;2022-09-12T12:37:52;0.60;;;0.50;;
4365;SDS011;2196;47.422;9.656;2022-09-12T12:40:22;0.50;;;0.50;;
4365;SDS011;2196;47.422;9.656;2022-09-12T12:42:56;0.23;;;0.23;;
4365;SDS011;2196;47.422;9.656;2022-09-12T12:48:29;1.10;;;0.50;;
4365;SDS011;2196;47.422;9.656;2022-09-12T12:54:00;0.40;;;0.40;;
4365;SDS011;2196;47.422;9.656;2022-09-12T12:56:32;0.63;;;0.50;;
4365;SDS011;2196;47.422;9.656;2022-09-12T12:59:10;0.40;;;0.40;;
4365;SDS011;2196;47.422;9.656;2022-09-12T13:01:45;3.87;;;0.70;;
4365;SDS011;2196;47.422;9.656;2022-09-12T13:04:15;0.80;;;0.50;;
4365;SDS011;2196;47.422;9.656;2022-09-12T13:06:53;1.90;;;0.60;;
4365;SDS011;2196;47.422;9.656;2022-09-12T13:09:24;0.60;;;0.37;;
4365;SDS011;2196;47.422;9.656;2022-09-12T13:11:57;1.47;;;0.40;;
4365;SDS011;2196;47.422;9.656;2022-09-12T13:17:17;0.33;;;0.33;;
4365;SDS011;2196;47.422;9.656;2022-09-12T13:19:51;0.30;;;0.30;;
4365;SDS011;2196;47.422;9.656;2022-09-12T13:22:36;2.10;;;0.50;;
4365;SDS011;2196;47.422;9.656;2022-09-12T13:25:16;0.40;;;0.40;;
4365;SDS011;2196;47.422;9.656;2022-09-12T13:27:55;0.60;;;0.60;;
4365;SDS011;2196;47.422;9.656;2022-09-12T13:30:27;0.83;;;0.60;;
4365;SDS011;2196;47.422;9.656;2022-09-12T13:32:56;3.03;;;0.73;;
4365;SDS011;2196;47.422;9.656;2022-09-12T13:35:32;0.30;;;0.30;;
4365;SDS011;2196;47.422;9.656;2022-09-12T13:38:09;1.27;;;0.40;;
4365;SDS011;2196;47.422;9.656;2022-09-12T13:40:56;3.40;;;0.80;;
4365;SDS011;2196;47.422;9.656;2022-09-12T13:43:41;0.50;;;0.37;;
4365;SDS011;2196;47.422;9.656;2022-09-12T13:46:11;0.50;;;0.50;;
4365;SDS011;2196;47.422;9.656;2022-09-12T13:48:41;0.90;;;0.50;;
4365;SDS011;2196;47.422;9.656;2022-09-12T13:51:14;0.67;;;0.40;;
4365;SDS011;2196;47.422;9.656;2022-09-12T13:53:50;0.50;;;0.50;;
4365;SDS011;2196;47.422;9.656;2022-09-12T13:56:20;1.80;;;0.50;;
4365;SDS011;2196;47.422;9.656;2022-09-12T13:58:51;0.40;;;0.40;;
4365;SDS011;2196;47.422;9.656;2022-09-12T14:01:20;3.20;;;0.30;;
4365;SDS011;2196;47.422;9.656;2022-09-12T14:03:49;0.40;;;0.40;;
4365;SDS011;2196;47.422;9.656;2022-09-12T14:06:35;0.40;;;0.40;;
4365;SDS011;2196;47.422;9.656;2022-09-12T14:09:13;0.37;;;0.30;;
4365;SDS011;2196;47.422;9.656;2022-09-12T14:11:41;0.50;;;0.30;;
4365;SDS011;2196;47.422;9.656;2022-09-12T14:14:17;0.30;;;0.30;;
4365;SDS011;2196;47.422;9.656;2022-09-12T14:16:52;0.63;;;0.40;;
4365;SDS011;2196;47.422;9.656;2022-09-12T14:19:19;0.50;;;0.50;;
4365;SDS011;2196;47.422;9.656;2022-09-12T14:21:50;1.13;;;0.30;;
4365;SDS011;2196;47.422;9.656;2022-09-12T14:24:20;0.53;;;0.37;;
4365;SDS011;2196;47.422;9.656;2022-09-12T14:26:48;0.80;;;0.30;;
4365;SDS011;2196;47.422;9.656;2022-09-12T14:29:17;0.30;;;0.30;;
4365;SDS011;2196;47.422;9.656;2022-09-12T14:31:45;1.37;;;0.80;;
4365;SDS011;2196;47.422;9.656;2022-09-12T14:34:13;0.70;;;0.70;;
4365;SDS011;2196;47.422;9.656;2022-09-12T14:36:42;0.30;;;0.30;;
4365;SDS011;2196;47.422;9.656;2022-09-12T14:39:16;1.40;;;0.20;;
4365;SDS011;2196;47.422;9.656;2022-09-12T14:41:48;0.30;;;0.30;;
4365;SDS011;2196;47.422;9.656;2022-09-12T14:44:16;0.20;;;0.20;;
4365;SDS011;2196;47.422;9.656;2022-09-12T14:46:47;0.20;;;0.20;;
4365;SDS011;2196;47.422;9.656;2022-09-12T14:49:15;0.33;;;0.33;;
4365;SDS011;2196;47.422;9.656;2022-09-12T14:51:51;0.47;;;0.20;;
4365;SDS011;2196;47.422;9.656;2022-09-12T14:54:34;1.10;;;0.20;;
4365;SDS011;2196;47.422;9.656;2022-09-12T14:57:04;0.20;;;0.20;;
4365;SDS011;2196;47.422;9.656;2022-09-12T14:59:35;0.37;;;0.20;;
4365;SDS011;2196;47.422;9.656;2022-09-12T15:02:23;0.40;;;0.40;;
4365;SDS011;2196;47.422;9.656;2022-09-12T15:04:52;0.30;;;0.30;;
4365;SDS011;2196;47.422;9.656;2022-09-12T15:07:21;1.03;;;0.30;;
4365;SDS011;2196;47.422;9.656;2022-09-12T15:09:58;0.60;;;0.27;;
4365;SDS011;2196;47.422;9.656;2022-09-12T15:12:27;0.47;;;0.20;;
4365;SDS011;2196;47.422;9.656;2022-09-12T15:14:55;2.63;;;0.33;;
4365;SDS011;2196;47.422;9.656;2022-09-12T15:17:25;0.23;;;0.20;;
4365;SDS011;2196;47.422;9.656;2022-09-12T15:19:52;0.23;;;0.20;;
4365;SDS011;2196;47.422;9.656;2022-09-12T15:22:20;0.13;;;0.13;;
4365;SDS011;2196;47.422;9.656;2022-09-12T15:24:50;0.27;;;0.10;;
4365;SDS011;2196;47.422;9.656;2022-09-12T15:27:18;0.40;;;0.40;;
4365;SDS011;2196;47.422;9.656;2022-09-12T15:29:45;0.20;;;0.20;;
4365;SDS011;2196;47.422;9.656;2022-09-12T15:32:13;0.47;;;0.20;;
4365;SDS011;2196;47.422;9.656;2022-09-12T15:34:48;0.60;;;0.10;;
4365;SDS011;2196;47.422;9.656;2022-09-12T15:37:17;0.37;;;0.10;;
4365;SDS011;2196;47.422;9.656;2022-09-12T15:39:45;0.43;;;0.20;;
4365;SDS011;2196;47.422;9.656;2022-09-12T15:42:12;0.80;;;0.20;;
4365;SDS011;2196;47.422;9.656;2022-09-12T15:44:41;1.37;;;0.20;;
4365;SDS011;2196;47.422;9.656;2022-09-12T15:47:09;0.20;;;0.20;;
4365;SDS011;2196;47.422;9.656;2022-09-12T15:49:38;0.20;;;0.20;;
4365;SDS011;2196;47.422;9.656;2022-09-12T15:52:06;1.03;;;0.20;;
4365;SDS011;2196;47.422;9.656;2022-09-12T15:54:33;0.20;;;0.20;;
4365;SDS011;2196;47.422;9.656;2022-09-12T15:57:00;1.13;;;0.10;;
4365;SDS011;2196;47.422;9.656;2022-09-12T15:59:27;0.20;;;0.20;;
4365;SDS011;2196;47.422;9.656;2022-09-12T16:01:56;0.40;;;0.20;;
4365;SDS011;2196;47.422;9.656;2022-09-12T16:04:24;0.20;;;0.13;;
4365;SDS011;2196;47.422;9.656;2022-09-12T16:06:52;0.20;;;0.20;;
4365;SDS011;2196;47.422;9.656;2022-09-12T16:09:20;0.20;;;0.20;;
4365;SDS011;2196;47.422;9.656;2022-09-12T16:11:48;0.30;;;0.30;;